Startpagina
METAR-TAF:

METAR-TAF

Vliegvelden :

Tingo María, Peru

breedte: 09-17-15S, lengte: 076-00-18W, hoogte: 654 m

Actueel weer

Dit bericht is 45 minuten geleden gemaakt, om 19:00 UTC
Wind 7 kt uit het noorden
Temperatuur 30°C
Vochtigheid 62%
Druk 1009 hPa
Zicht 10 km of meer
Weinig wolken op 4000 ft
Gebroken wolken op 13000 ft

METAR: SPGM 281900Z 01007KT 9999 FEW040 BKN130 30/22 Q1009 RMK PP000

Tijdstip: 14:45 (19:45 UTC)

Verwachting

Dit bericht is 2 uur en het 45 minuten geleden gemaakt, om 17:00 UTC
Verwachting geldig van 28 om 18 UTC tot 29 om 18 UTC
Wind 5 kt uit het noorden
Zicht 10 km of meer
Weinig wolken op 4000 ft
Verspreide wolken op 12000 ft
Tijdelijke
van 29 om 12 UTC tot 29 om 15 UTC
Wind kt uit het noorden
Weinig wolken op 2000 ft
Verspreide wolken op 10000 ft

TAF: SPGM 281700Z 2818/2918 35005KT 9999 FEW040 SCT120 TX34/2819Z TN23/2911Z TEMPO 2912/2915 00000KT FEW020 SCT100

Waarnemingen en weersverwachtingen van meer dan 4000 vliegvelden (METAR en TAF).

De beschikbare stations zijn de gele en rode punten op de kaart.

Ga met uw muis naar het station om de naam te zien.

Klik dan om waarnemingen en weersverwachtingen te zien.

kaart wijzigen: klik op de groene knoppen met een zwart kruis om in te zoomen, op de groene knop met een streepje om uit te zoomen of op de groene pijlen voor aangrenzende kaarten.


METAR-TAF: